Aérodrome :
LOGIN :

S'inscrire | Disclaimer

   EN    FR    IT 

 










Légende :    VFR   VFR Marginal   IFR   IFR Intensif   IFR Très Intensif
Visi : 
Plafond : 
>= 8 km
>= 3000ft
5 à 8 km
1000 à 3000 ft
1500m à 5 km
500 à 1000 ft
800 à 1500m
200 à 500 ft
< 800m
< 200 ft
Symboles :   Orages  Brouillard  Fortes neiges  Fortes précipitations  Vent > 20 kt
SIGMETs :   Divers  Orages  Givrage  Turbulence  Onde Orograph.  Cendres Volcan.







- Altitude de l'aérodrome : 147 ft
- Code IATA : DUS


EDDL - Düsseldorf Int.

DERNIER METAR :
  • 211050Z 09010KT 060V140 CAVOK 25/09 Q1014 NOSIG

METARs EXPIRÉS :
  • 211020Z 11011KT 070V160 CAVOK 25/09 Q1015 NOSIG
  • 210950Z 11012KT 070V150 CAVOK 24/09 Q1015 NOSIG
  • 210920Z 06011KT 030V090 CAVOK 24/10 Q1015 NOSIG
  • 210850Z 06011KT 030V100 CAVOK 23/10 Q1016 NOSIG
  • 210820Z 07009KT 040V100 CAVOK 22/09 Q1016 NOSIG

TAF TAF EDDL
Valide du 21 à 06h jusqu'au 22 à 12h UTC


210500Z 2106/2212 04004KT CAVOK
BECMG 2107/2110 09010KT
PROB30
TEMPO 2111/2114 09015G25KT
BECMG 2117/2120 06005KT
BECMG 2121/2124 VRB03KT
PROB30
TEMPO 2202/2205 11010KT TSRA BKN020CB
Pas de NOTAMs connus pour ce terrain.



MET'MAP, la Météo Aéronautique d'un coup d'oeil ! - Copyright ORBIFLY Décembre 2007 - Disclaimer

ORBIFLY MET'MAP TEAM :

Programmation & Développement : Alexandra Zaïnal
Conception & Développement : Baudouin d'Aumeries
Co-Programmation & Développement : Marc-Olivier Méhu
Soutien technique & logistique : Manuel Goepfert

Contact : metmap@orbifly.com




SOURCES & CREDITS :

   NOAA